createdAt,value
2019-04-21T00:00:37.359Z,41.80
2019-04-21T00:06:07.596Z,42.40
2019-04-21T00:16:04.946Z,42.50
2019-04-21T00:21:14.861Z,42.40
2019-04-21T00:26:33.409Z,42.50
2019-04-21T00:31:40.812Z,42.50
2019-04-21T00:36:42.764Z,42.60
2019-04-21T00:41:59.599Z,42.60
2019-04-21T00:47:01.798Z,42.50
2019-04-21T00:52:56.317Z,42.70
2019-04-21T00:57:57.455Z,42.60
2019-04-21T01:03:05.742Z,42.60
2019-04-21T01:08:09.428Z,42.60
2019-04-21T01:13:23.406Z,42.70
2019-04-21T01:18:31.116Z,43.20
2019-04-21T01:23:12.804Z,42.70
2019-04-21T01:28:38.198Z,42.60
2019-04-21T01:33:50.782Z,42.70
2019-04-21T01:38:59.110Z,42.70
2019-04-21T01:44:00.777Z,42.70
2019-04-21T01:49:05.591Z,42.70
2019-04-21T01:54:43.205Z,42.70
2019-04-21T01:59:41.523Z,42.70
2019-04-21T02:05:07.086Z,42.70
2019-04-21T02:10:07.814Z,42.90
2019-04-21T02:15:20.113Z,42.70
2019-04-21T02:20:12.224Z,42.70
2019-04-21T02:25:29.735Z,42.70
2019-04-21T02:30:50.626Z,42.70
2019-04-21T02:46:12.556Z,42.70
2019-04-21T02:51:21.921Z,42.80
2019-04-21T02:56:29.132Z,42.80
2019-04-21T03:02:03.733Z,42.80
2019-04-21T03:07:13.001Z,42.80
2019-04-21T03:22:32.251Z,42.80
2019-04-21T03:27:52.790Z,42.80
2019-04-21T03:33:27.120Z,42.80
2019-04-21T03:38:13.086Z,42.80
2019-04-21T03:43:09.559Z,42.80
2019-04-21T03:53:33.941Z,42.80
2019-04-21T03:58:41.930Z,42.80
2019-04-21T04:04:05.793Z,42.80
2019-04-21T04:09:36.768Z,42.80
2019-04-21T04:14:46.165Z,42.80
2019-04-21T04:19:46.184Z,42.80
2019-04-21T04:25:01.027Z,42.80
2019-04-21T04:30:08.109Z,42.90
2019-04-21T04:40:36.672Z,42.80
2019-04-21T04:50:49.455Z,42.90
2019-04-21T04:55:54.747Z,42.90
2019-04-21T05:01:21.655Z,42.90
2019-04-21T05:06:42.754Z,42.90
2019-04-21T05:16:46.371Z,42.90
2019-04-21T05:22:05.493Z,42.80
2019-04-21T05:26:47.922Z,43.00
2019-04-21T05:32:14.093Z,42.90
2019-04-21T05:37:43.257Z,42.90
2019-04-21T05:42:45.880Z,43.00
2019-04-21T05:48:12.136Z,42.90
2019-04-21T05:53:10.314Z,43.00
2019-04-21T05:58:13.077Z,43.00
2019-04-21T06:03:23.515Z,41.20
2019-04-21T06:08:31.323Z,34.70
2019-04-21T06:18:56.840Z,41.40
2019-04-21T06:24:11.571Z,42.60
2019-04-21T06:29:07.300Z,43.00
2019-04-21T06:34:21.479Z,43.50
2019-04-21T06:39:27.454Z,43.70
2019-04-21T06:44:48.459Z,43.90
2019-04-21T06:49:40.499Z,43.90
2019-04-21T06:54:47.746Z,44.10
2019-04-21T06:59:54.371Z,44.30
2019-04-21T07:05:21.679Z,44.20
2019-04-21T07:10:12.272Z,44.20
2019-04-21T07:15:17.023Z,44.10
2019-04-21T07:20:24.790Z,44.20
2019-04-21T07:25:39.106Z,44.40
2019-04-21T07:30:49.600Z,44.40
2019-04-21T07:35:54.095Z,44.50
2019-04-21T07:40:54.524Z,42.90
2019-04-21T07:46:04.268Z,42.50
2019-04-21T07:51:37.772Z,41.90
2019-04-21T07:56:28.813Z,42.20
2019-04-21T08:01:53.763Z,42.20
2019-04-21T08:06:59.730Z,42.50
2019-04-21T08:12:00.359Z,42.90
2019-04-21T08:17:12.338Z,35.50
2019-04-21T08:22:29.785Z,33.90
2019-04-21T08:27:37.274Z,34.00
2019-04-21T08:32:46.597Z,32.10
2019-04-21T08:37:46.364Z,32.20
2019-04-21T08:42:51.645Z,31.40
2019-04-21T08:47:58.776Z,32.50
2019-04-21T08:53:07.100Z,32.10
2019-04-21T08:58:30.831Z,36.00
2019-04-21T09:03:49.479Z,36.70
2019-04-21T09:08:57.755Z,37.90
2019-04-21T09:14:07.290Z,38.70
2019-04-21T09:19:22.074Z,39.40
2019-04-21T09:24:22.271Z,39.90
2019-04-21T09:29:25.683Z,40.40
2019-04-21T09:34:25.072Z,40.70
2019-04-21T09:39:29.615Z,40.90
2019-04-21T09:44:38.610Z,40.90
2019-04-21T09:49:43.283Z,41.00
2019-04-21T09:54:58.586Z,41.10
2019-04-21T10:00:05.068Z,41.30
2019-04-21T10:05:05.262Z,41.30
2019-04-21T10:10:10.954Z,41.40
2019-04-21T10:15:16.753Z,41.40
2019-04-21T10:20:22.634Z,41.40
2019-04-21T10:25:28.525Z,41.50
2019-04-21T10:30:34.767Z,41.50
2019-04-21T10:35:43.275Z,41.60
2019-04-21T10:40:49.678Z,41.60
2019-04-21T10:45:56.996Z,41.50
2019-04-21T10:51:03.214Z,41.60
2019-04-21T10:56:18.052Z,41.60
2019-04-21T11:01:21.484Z,41.60
2019-04-21T11:06:28.586Z,41.60
2019-04-21T11:11:34.564Z,41.70
2019-04-21T11:16:41.604Z,41.60
2019-04-21T11:21:49.193Z,41.60
2019-04-21T11:26:55.891Z,41.70
2019-04-21T11:32:02.946Z,41.70
2019-04-21T11:37:10.386Z,41.70
2019-04-21T11:42:21.720Z,41.80
2019-04-21T11:47:36.400Z,41.70
2019-04-21T11:52:43.169Z,41.70
2019-04-21T11:57:50.168Z,41.80
2019-04-21T12:02:57.499Z,41.80
2019-04-21T12:08:15.816Z,41.80
2019-04-21T12:13:12.092Z,42.40
2019-04-21T12:18:19.759Z,41.80
2019-04-21T12:23:26.855Z,41.80
2019-04-21T12:28:34.287Z,42.10
2019-04-21T12:33:50.046Z,41.60
2019-04-21T12:38:59.658Z,41.50
2019-04-21T12:44:04.630Z,41.30
2019-04-21T12:49:11.809Z,41.30
2019-04-21T12:54:17.760Z,41.30
2019-04-21T12:59:24.605Z,41.30
2019-04-21T13:04:31.506Z,41.90
2019-04-21T13:09:37.638Z,41.30
2019-04-21T13:14:44.077Z,41.30
2019-04-21T13:19:51.406Z,41.20
2019-04-21T13:24:58.014Z,41.30
2019-04-21T13:30:04.361Z,41.40
2019-04-21T13:35:10.984Z,41.40
2019-04-21T13:41:02.138Z,41.30
2019-04-21T13:45:57.384Z,41.30
2019-04-21T13:51:04.983Z,41.50
2019-04-21T13:56:11.515Z,41.50
2019-04-21T14:01:18.019Z,41.60
2019-04-21T14:06:24.644Z,41.60
2019-04-21T14:11:31.377Z,41.70
2019-04-21T14:16:38.181Z,41.50
2019-04-21T14:21:47.693Z,41.50
2019-04-21T14:26:52.242Z,41.20
2019-04-21T14:32:00.042Z,41.00
2019-04-21T14:37:06.512Z,41.10
2019-04-21T14:42:14.014Z,41.00
2019-04-21T14:47:46.351Z,40.50
2019-04-21T14:53:12.297Z,40.20
2019-04-21T14:58:19.129Z,40.30
2019-04-21T15:03:25.826Z,40.00
2019-04-21T15:08:33.262Z,40.00
2019-04-21T15:13:40.065Z,40.20
2019-04-21T15:18:46.523Z,40.30
2019-04-21T15:23:54.117Z,40.50
2019-04-21T15:28:59.974Z,40.50
2019-04-21T15:34:07.412Z,40.90
2019-04-21T15:39:13.929Z,41.30
2019-04-21T15:44:20.839Z,41.10
2019-04-21T15:49:40.655Z,41.00
2019-04-21T15:54:38.655Z,41.20
2019-04-21T15:59:54.902Z,41.50
2019-04-21T16:05:02.814Z,41.60
2019-04-21T16:10:10.613Z,41.80
2019-04-21T16:15:22.933Z,42.30
2019-04-21T16:20:32.305Z,41.90
2019-04-21T16:25:38.999Z,42.20
2019-04-21T16:30:46.582Z,42.30
2019-04-21T16:35:53.760Z,42.40
2019-04-21T16:41:04.848Z,42.20
2019-04-21T16:46:10.686Z,42.40
2019-04-21T16:51:16.536Z,42.20
2019-04-21T16:56:28.933Z,42.30
2019-04-21T17:01:36.450Z,42.20
2019-04-21T17:06:42.939Z,42.30
2019-04-21T17:11:57.435Z,42.30
2019-04-21T17:17:17.807Z,42.30
2019-04-21T17:22:10.918Z,42.30
2019-04-21T17:27:23.019Z,42.30
2019-04-21T17:32:42.089Z,42.70
2019-04-21T17:37:44.185Z,42.80
2019-04-21T17:42:59.325Z,44.60
2019-04-21T17:48:17.976Z,44.60
2019-04-21T17:53:34.305Z,45.30
2019-04-21T17:59:01.380Z,44.70
2019-04-21T18:04:10.841Z,44.60
2019-04-21T18:09:15.743Z,44.70
2019-04-21T18:13:59.669Z,44.70
2019-04-21T18:19:28.703Z,44.90
2019-04-21T18:25:10.485Z,45.10
2019-04-21T18:31:22.811Z,44.90
2019-04-21T18:37:42.701Z,45.30
2019-04-21T18:44:23.436Z,45.10
2019-04-21T18:50:22.398Z,45.30
2019-04-21T18:56:49.895Z,45.10
2019-04-21T19:02:26.255Z,45.30
2019-04-21T19:07:52.009Z,45.30
2019-04-21T19:23:11.636Z,45.00
2019-04-21T19:28:16.392Z,45.10
2019-04-21T19:33:26.644Z,45.10
2019-04-21T19:38:29.166Z,45.10
2019-04-21T19:43:46.026Z,45.00
2019-04-21T19:48:56.588Z,44.90
2019-04-21T19:53:50.662Z,45.60
2019-04-21T19:58:47.431Z,44.90
2019-04-21T20:03:57.113Z,44.90
2019-04-21T20:09:19.027Z,45.00
2019-04-21T20:19:17.887Z,44.80
2019-04-21T20:24:28.381Z,44.90
2019-04-21T20:29:49.939Z,45.00
2019-04-21T20:35:00.940Z,45.00
2019-04-21T20:39:57.450Z,45.10
2019-04-21T20:45:29.615Z,45.10
2019-04-21T20:50:16.523Z,45.10
2019-04-21T20:55:20.210Z,45.10
2019-04-21T21:00:45.878Z,45.00
2019-04-21T21:05:39.550Z,45.10
2019-04-21T21:10:45.262Z,45.60
2019-04-21T21:16:10.545Z,45.00
2019-04-21T21:21:07.905Z,45.00
2019-04-21T21:26:21.929Z,45.00
2019-04-21T21:31:25.275Z,44.90
2019-04-21T21:36:33.936Z,44.90
2019-04-21T21:41:26.430Z,44.80
2019-04-21T21:46:45.644Z,44.90
2019-04-21T21:51:49.614Z,44.80
2019-04-21T21:56:44.606Z,44.80
2019-04-21T22:01:54.013Z,44.80
2019-04-21T22:07:04.834Z,44.80
2019-04-21T22:12:08.747Z,44.80
2019-04-21T22:17:32.770Z,44.80
2019-04-21T22:22:32.534Z,44.90
2019-04-21T22:27:29.225Z,44.80
2019-04-21T22:32:36.429Z,44.80
2019-04-21T22:37:54.883Z,44.80
2019-04-21T22:42:59.369Z,44.80
2019-04-21T22:48:03.956Z,44.80
2019-04-21T22:53:09.639Z,44.80
2019-04-21T22:58:15.862Z,45.40
2019-04-21T23:03:24.847Z,44.80
2019-04-21T23:08:34.538Z,44.80
2019-04-21T23:13:38.708Z,44.80
2019-04-21T23:18:59.405Z,44.90
2019-04-21T23:24:08.710Z,44.80
2019-04-21T23:29:18.487Z,44.80
2019-04-21T23:34:10.864Z,44.70
2019-04-21T23:39:21.590Z,44.80
2019-04-21T23:44:23.968Z,44.90
2019-04-21T23:49:43.024Z,44.80
2019-04-21T23:54:37.609Z,44.80
2019-04-21T23:59:46.926Z,45.40
